Impacts TAF Board
For situational awareness. Not to be used for flight planning purposes.
IDs:

KGEG - Spokane Intl, WA, US

Issued at 2320 UTC 18 Oct 2021
Updated at 0320 UTC 19 Oct 2021
Potential Impact None Slight Moderate High
Time0253Z 19/04Z 19/05Z 19/06Z 19/07Z 19/08Z 19/09Z 19/10Z 19/11Z 19/12Z 19/13Z 19/14Z 19/15Z 19/16Z>>
Type OBS PRVL PRVL PRVL PRVL PRVL PRVL PRVL PRVL PRVL PRVL PRVL PRVL PRVL
VIS 10 >6 >6 >6 >6 >6 >6 >6 >6 >6 >6 >6 >6 >6
CIG -- -- -- -- -- -- -- -- -- -- -- -- -- --
Cover CLR SKC SKC SKC SKC SKC SKC SKC SKC SKC SKC SKC SKC SKC
FltCat VFR VFR VFR VFR VFR VFR VFR VFR VFR VFR VFR VFR VFR VFR
WX -- -- -- -- -- -- -- -- -- -- -- -- -- --
WDir 240 290 VRB VRB VRB VRB VRB VRB VRB VRB VRB VRB VRB VRB
WSpd 5 5 5 5 5 5 5 5 5 5 5 5 5 5
WGst -- -- -- -- -- -- -- -- -- -- -- -- -- --
Raw TAF
KGEG 182320Z 1900/1924 29005KT P6SM SKC
  FM190500 VRB05KT P6SM SKC
  FM191800 08006KT P6SM SKC


Raw METAR
KGEG 190253Z 24005KT 10SM CLR 09/02 A2987 RMK AO2 SLP122 T00890017 53008
KGEG 190153Z 18005KT 10SM CLR 13/02 A2985 RMK AO2 SLP113 T01280022
KGEG 190053Z 00000KT 10SM CLR 16/03 A2985 RMK AO2 SLP107 T01560028

METAR Board
Radar Display
Forecast Discussion
For situational awareness. Not to be used for flight planning purposes.